CheckWX is a tool to help pilots better visualize weather data.  It is not intended as a substitute for an official pre-flight weather briefing.

12:19:57 UTC

CZVL METAR
Edmonton / Villeneuve Airport
Edmonton, Canada
Current

20 mins ago

CZVL 251200Z AUTO 14007KT 9SM OVC009 00/M01 A3014 RMK SLP238
Observed
Mar-25 @ 12:00 UTC
Wind
  • 140° at 7 KTS
Visibility
9 SM
Flight Rules
IFR
Cloud Levels
  • Overcast at 900' AGL
Temperature
C / 32°F
Dewpoint
-1°C / 30°F
Humidity
93%
Altimeter
30.14" Hg
Pressure
1023.8 hPa
Previous

1 hour ago

CZVL 251100Z AUTO 14008KT 9SM OVC013 00/M01 A3016 RMK SLP244
Observed
Mar-25 @ 11:00 UTC
Wind
  • 140° at 8 KTS
Visibility
9 SM
Flight Rules
MVFR
Cloud Levels
  • Overcast at 1,300' AGL
Temperature
C / 32°F
Dewpoint
-1°C / 30°F
Humidity
93%
Altimeter
30.16" Hg
Pressure
1024.4 hPa
Previous

2 hours ago

CZVL 251000Z AUTO 14006KT 9SM OVC017 00/M01 A3017 RMK SLP247
Observed
Mar-25 @ 10:00 UTC
Wind
  • 140° at 6 KTS
Visibility
9 SM
Flight Rules
MVFR
Cloud Levels
  • Overcast at 1,700' AGL
Temperature
C / 32°F
Dewpoint
-1°C / 30°F
Humidity
93%
Altimeter
30.17" Hg
Pressure
1024.7 hPa